Time;durP1;ratioP1;P1;durP2;ratioP2;P2;SDS_P1;SDS_P2;PMS_P1;PMS_P2;Temp;Humidity;BMP_temperature;BMP_pressure;BME280_temperature;BME280_humidity;BME280_pressure;Samples;Min_cycle;Max_cycle;Signal;HPM_P1;HPM_P2
2023/12/13 00:00:39;;;;;;;2.35;0.60;;;6.50;99.90;;;;;;2053214;28;20227;-72
2023/12/13 00:01:40;;;;;;;2.13;0.43;;;6.50;99.90;;;;;;2053987;28;20272;-71
2023/12/13 00:02:40;;;;;;;2.10;0.63;;;6.40;99.90;;;;;;2051349;28;20227;-72
2023/12/13 00:03:41;;;;;;;0.70;0.40;;;6.50;99.90;;;;;;2053744;28;20293;-72
2023/12/13 00:04:42;;;;;;;0.83;0.53;;;6.50;99.90;;;;;;2045640;28;20251;-72
2023/12/13 00:05:42;;;;;;;1.60;0.77;;;6.50;99.90;;;;;;2045666;28;20232;-72
2023/12/13 00:06:43;;;;;;;1.50;0.40;;;6.50;99.90;;;;;;2044666;28;20227;-72
2023/12/13 00:07:44;;;;;;;0.40;0.40;;;6.50;99.90;;;;;;2047938;28;20599;-71
2023/12/13 00:08:45;;;;;;;0.70;0.50;;;6.60;99.90;;;;;;2045408;28;20809;-72
2023/12/13 00:09:46;;;;;;;3.55;0.95;;;6.70;99.90;;;;;;2046609;28;20227;-72
2023/12/13 00:10:47;;;;;;;1.10;0.55;;;6.70;99.90;;;;;;2045324;28;20694;-72
2023/12/13 00:11:48;;;;;;;1.73;0.50;;;6.70;99.90;;;;;;2053963;28;20858;-72
2023/12/13 00:12:49;;;;;;;1.13;0.30;;;6.70;99.90;;;;;;2043053;28;20231;-72
2023/12/13 00:13:49;;;;;;;0.53;0.40;;;6.70;99.90;;;;;;2045871;28;20732;-72
2023/12/13 00:14:51;;;;;;;0.40;0.40;;;6.60;99.90;;;;;;2045672;28;20242;-72
2023/12/13 00:15:52;;;;;;;0.88;0.47;;;6.60;99.90;;;;;;2044394;28;20611;-72
2023/12/13 00:16:52;;;;;;;1.60;0.43;;;6.60;99.90;;;;;;2048503;28;20234;-72
2023/12/13 00:17:53;;;;;;;0.83;0.50;;;6.60;99.90;;;;;;2054614;28;20610;-72
2023/12/13 00:18:54;;;;;;;0.50;0.50;;;6.60;99.90;;;;;;2063195;28;20258;-72
2023/12/13 00:19:54;;;;;;;1.17;0.70;;;6.60;99.90;;;;;;2055301;28;20259;-72
2023/12/13 00:20:55;;;;;;;1.50;0.50;;;6.60;99.90;;;;;;2037793;29;20616;-71
2023/12/13 00:21:56;;;;;;;0.35;0.32;;;6.70;99.90;;;;;;2061950;28;20288;-72
2023/12/13 00:22:57;;;;;;;0.90;0.50;;;6.70;99.90;;;;;;2063009;28;20653;-72
2023/12/13 00:23:57;;;;;;;0.40;0.40;;;6.70;99.90;;;;;;2062328;28;20262;-72
2023/12/13 00:24:58;;;;;;;4.90;0.70;;;6.70;99.90;;;;;;2051935;28;20270;-72
2023/12/13 00:25:59;;;;;;;3.77;0.40;;;6.70;99.90;;;;;;2069814;28;20258;-72
2023/12/13 00:27:01;;;;;;;4.87;0.57;;;6.70;99.90;;;;;;2069448;28;20222;-72
2023/12/13 00:28:02;;;;;;;1.52;0.47;;;6.80;99.90;;;;;;2069314;28;20218;-73
2023/12/13 00:29:03;;;;;;;2.08;0.50;;;6.80;99.90;;;;;;2062332;28;20212;-72
2023/12/13 00:30:04;;;;;;;2.17;0.60;;;6.80;99.90;;;;;;2053368;28;20218;-73
2023/12/13 00:31:06;;;;;;;0.77;0.50;;;6.80;99.90;;;;;;2053522;28;20211;-73
2023/12/13 00:32:06;;;;;;;4.60;0.65;;;6.80;99.90;;;;;;2053163;28;20563;-73
2023/12/13 00:33:07;;;;;;;2.37;1.17;;;6.70;99.90;;;;;;2061254;28;20230;-72
2023/12/13 00:34:08;;;;;;;1.47;0.60;;;6.70;99.90;;;;;;2063842;28;20576;-72
2023/12/13 00:35:08;;;;;;;1.70;0.57;;;6.70;99.90;;;;;;2063098;28;20207;-73
2023/12/13 00:36:09;;;;;;;0.60;0.60;;;6.70;99.90;;;;;;2055472;28;20247;-73
2023/12/13 00:37:10;;;;;;;1.53;0.57;;;6.60;99.90;;;;;;2052447;28;20199;-72
2023/12/13 00:38:11;;;;;;;0.87;0.40;;;6.60;99.90;;;;;;2041350;28;20188;-72
2023/12/13 00:39:12;;;;;;;1.80;0.40;;;6.50;99.90;;;;;;2048657;28;20630;-73
2023/12/13 00:40:13;;;;;;;0.60;0.60;;;6.50;99.90;;;;;;2054208;28;20194;-72
2023/12/13 00:41:13;;;;;;;0.82;0.50;;;6.40;99.90;;;;;;2052750;28;20704;-72
2023/12/13 00:42:14;;;;;;;0.40;0.40;;;6.40;99.90;;;;;;2056019;28;20204;-72
2023/12/13 00:43:15;;;;;;;1.83;0.47;;;6.40;99.90;;;;;;2062993;28;20195;-73
2023/12/13 00:44:16;;;;;;;0.73;0.50;;;6.30;99.90;;;;;;2052400;28;20215;-73
2023/12/13 00:45:17;;;;;;;2.67;0.40;;;6.30;99.90;;;;;;2050847;28;20249;-73
2023/12/13 00:46:20;;;;;;;0.90;0.40;;;6.30;99.90;;;;;;2069818;28;20187;-73
2023/12/13 00:47:20;;;;;;;0.38;0.30;;;6.20;99.90;;;;;;2086072;28;20220;-72
2023/12/13 00:48:21;;;;;;;0.50;0.30;;;6.30;99.90;;;;;;2046784;28;20244;-72
2023/12/13 00:49:22;;;;;;;1.97;0.63;;;6.20;99.90;;;;;;2041369;28;20225;-71
2023/12/13 00:50:22;;;;;;;0.83;0.40;;;6.30;99.90;;;;;;2047064;28;20322;-72
2023/12/13 00:51:23;;;;;;;1.37;0.60;;;6.20;99.90;;;;;;2059880;28;20239;-72
2023/12/13 00:52:24;;;;;;;0.67;0.40;;;6.20;99.90;;;;;;2060168;28;20658;-72
2023/12/13 00:53:25;;;;;;;0.30;0.30;;;6.10;99.90;;;;;;2045835;28;20223;-72
2023/12/13 00:54:26;;;;;;;0.75;0.40;;;6.10;99.90;;;;;;2046108;28;20305;-72
2023/12/13 00:55:27;;;;;;;1.50;0.40;;;6.10;99.90;;;;;;2043050;28;20250;-72
2023/12/13 00:56:30;;;;;;;0.45;0.45;;;6.10;99.90;;;;;;2048971;28;20235;-72
2023/12/13 00:57:31;;;;;;;0.30;0.30;;;6.00;99.90;;;;;;2053492;28;20226;-71
2023/12/13 00:58:33;;;;;;;0.50;0.50;;;6.00;99.90;;;;;;2050671;28;20229;-72
2023/12/13 00:59:33;;;;;;;0.80;0.77;;;6.00;99.90;;;;;;2043588;28;20587;-72
2023/12/13 01:00:34;;;;;;;0.30;0.30;;;6.10;99.90;;;;;;2045748;28;20230;-71
2023/12/13 01:01:46;;;;;;;0.30;0.30;;;6.00;99.90;;;;;;2053599;28;20718;-72
2023/12/13 01:02:47;;;;;;;0.63;0.60;;;6.00;99.90;;;;;;2053536;28;20680;-72
2023/12/13 01:03:48;;;;;;;0.28;0.28;;;6.00;99.90;;;;;;2045429;28;20230;-72
2023/12/13 01:04:48;;;;;;;1.20;0.63;;;6.00;99.90;;;;;;2037736;29;20335;-72
2023/12/13 01:05:49;;;;;;;0.30;0.30;;;6.00;99.90;;;;;;2049291;28;20577;-72
2023/12/13 01:06:50;;;;;;;0.80;0.40;;;6.10;99.90;;;;;;2053476;28;20846;-72
2023/12/13 01:07:51;;;;;;;0.30;0.30;;;6.10;99.90;;;;;;2046875;28;20279;-71
2023/12/13 01:08:52;;;;;;;0.30;0.25;;;6.10;99.90;;;;;;2054610;28;20725;-72
2023/12/13 01:09:53;;;;;;;0.30;0.30;;;6.20;99.90;;;;;;2055625;28;20231;-72
2023/12/13 01:10:53;;;;;;;0.28;0.20;;;6.10;99.90;;;;;;2065260;28;20220;-72
2023/12/13 01:11:54;;;;;;;0.20;0.20;;;6.10;99.90;;;;;;2061530;28;20223;-72
2023/12/13 01:12:55;;;;;;;0.30;0.20;;;6.20;99.90;;;;;;2058825;28;20215;-72
2023/12/13 01:13:56;;;;;;;1.08;0.32;;;6.30;99.90;;;;;;2053786;28;20227;-72
2023/12/13 01:14:57;;;;;;;0.33;0.20;;;6.20;99.90;;;;;;2045955;28;20316;-72
2023/12/13 01:15:57;;;;;;;0.50;0.30;;;6.20;99.90;;;;;;2050182;28;20246;-72
2023/12/13 01:17:01;;;;;;;1.17;0.40;;;6.20;99.90;;;;;;2052731;28;20231;-72
2023/12/13 01:18:02;;;;;;;0.43;0.30;;;6.20;99.90;;;;;;2050045;28;20229;-72
2023/12/13 01:19:02;;;;;;;0.37;0.30;;;6.20;99.90;;;;;;2038452;28;20575;-72
2023/12/13 01:20:09;;;;;;;0.43;0.30;;;6.20;99.90;;;;;;2037681;28;20235;-72
2023/12/13 01:21:10;;;;;;;0.95;0.50;;;6.30;99.90;;;;;;2038278;28;20783;-73
2023/12/13 01:22:10;;;;;;;0.30;0.30;;;6.30;99.90;;;;;;2038030;28;20195;-72
2023/12/13 01:23:11;;;;;;;0.57;0.30;;;6.40;99.90;;;;;;2051870;28;20614;-72
2023/12/13 01:24:13;;;;;;;0.30;0.30;;;6.40;99.90;;;;;;2051142;28;20194;-72
2023/12/13 01:25:14;;;;;;;0.30;0.30;;;6.30;99.90;;;;;;2053578;28;20210;-72
2023/12/13 01:26:15;;;;;;;0.37;0.30;;;6.30;99.90;;;;;;2054056;28;20214;-72
2023/12/13 01:27:16;;;;;;;0.40;0.40;;;6.30;99.90;;;;;;2053925;28;20183;-72
2023/12/13 01:28:16;;;;;;;0.30;0.30;;;6.30;99.90;;;;;;2050344;28;20244;-72
2023/12/13 01:29:18;;;;;;;0.30;0.27;;;6.40;99.90;;;;;;2045927;28;20889;-72
2023/12/13 01:30:18;;;;;;;0.30;0.30;;;6.40;99.90;;;;;;2052156;28;20576;-72
2023/12/13 01:31:19;;;;;;;0.93;0.30;;;6.30;99.90;;;;;;2035682;29;20227;-72
2023/12/13 01:32:20;;;;;;;1.80;0.30;;;6.30;99.90;;;;;;2043653;28;20245;-72
2023/12/13 01:33:21;;;;;;;0.67;0.30;;;6.30;99.90;;;;;;2045427;28;20239;-72
2023/12/13 01:34:21;;;;;;;0.87;0.60;;;6.30;99.90;;;;;;2052844;28;20236;-72
2023/12/13 01:35:22;;;;;;;0.53;0.53;;;6.30;99.90;;;;;;2053255;28;20227;-72
2023/12/13 01:36:23;;;;;;;0.30;0.30;;;6.30;99.90;;;;;;2045268;28;20231;-72
2023/12/13 01:37:23;;;;;;;0.20;0.20;;;6.40;99.90;;;;;;2037578;28;20259;-72
2023/12/13 01:38:24;;;;;;;0.70;0.30;;;6.40;99.90;;;;;;2037700;28;20244;-72
2023/12/13 01:39:25;;;;;;;0.30;0.30;;;6.50;99.90;;;;;;2053758;28;20674;-72
2023/12/13 01:40:25;;;;;;;0.27;0.27;;;6.60;99.90;;;;;;2086697;28;20243;-72
2023/12/13 01:41:26;;;;;;;0.30;0.30;;;6.60;99.90;;;;;;2086417;28;20786;-72
2023/12/13 01:42:27;;;;;;;0.50;0.30;;;6.70;99.90;;;;;;2054065;28;20242;-72
2023/12/13 01:43:27;;;;;;;1.73;0.87;;;6.70;99.90;;;;;;2063136;28;20251;-72
2023/12/13 01:44:28;;;;;;;0.40;0.37;;;6.80;99.90;;;;;;2044225;28;20231;-72
2023/12/13 01:45:29;;;;;;;1.30;0.40;;;6.80;99.90;;;;;;2045318;28;20576;-72
2023/12/13 01:46:31;;;;;;;0.53;0.40;;;6.80;99.90;;;;;;2045567;28;20239;-72
2023/12/13 01:47:31;;;;;;;0.40;0.40;;;6.80;99.90;;;;;;2045450;28;20235;-72
2023/12/13 01:48:32;;;;;;;0.30;0.30;;;6.80;99.90;;;;;;2034583;29;20307;-72
2023/12/13 01:49:33;;;;;;;0.43;0.43;;;6.80;99.90;;;;;;2041737;28;20238;-72
2023/12/13 01:50:34;;;;;;;0.40;0.40;;;6.80;99.90;;;;;;2053075;28;20590;-72
2023/12/13 01:51:37;;;;;;;0.63;0.40;;;6.80;99.90;;;;;;2057913;28;20218;-72
2023/12/13 01:52:38;;;;;;;0.30;0.28;;;6.80;99.90;;;;;;2057025;28;20255;-72
2023/12/13 01:53:40;;;;;;;0.95;0.55;;;6.80;99.90;;;;;;2053560;28;20239;-72
2023/12/13 01:54:41;;;;;;;0.45;0.38;;;6.80;99.90;;;;;;2044593;28;20230;-72
2023/12/13 01:55:42;;;;;;;0.30;0.30;;;6.80;99.90;;;;;;2090189;28;20235;-72
2023/12/13 01:56:44;;;;;;;0.50;0.50;;;6.80;99.90;;;;;;2050266;28;20234;-72
2023/12/13 01:57:46;;;;;;;0.30;0.30;;;6.80;99.90;;;;;;2054566;28;20225;-72
2023/12/13 01:58:47;;;;;;;0.47;0.30;;;6.80;99.90;;;;;;2056425;28;20292;-72
2023/12/13 01:59:47;;;;;;;0.30;0.30;;;6.80;99.90;;;;;;2041854;29;20350;-72
2023/12/13 02:00:51;;;;;;;0.30;0.30;;;6.70;99.90;;;;;;2043407;28;20395;-72
2023/12/13 02:01:52;;;;;;;0.40;0.30;;;6.70;99.90;;;;;;2054576;28;20300;-72
2023/12/13 02:02:52;;;;;;;0.40;0.40;;;6.80;99.90;;;;;;2045915;28;20303;-72
2023/12/13 02:03:53;;;;;;;0.30;0.30;;;6.80;99.90;;;;;;2046029;28;20314;-72
2023/12/13 02:04:55;;;;;;;0.60;0.30;;;6.80;99.90;;;;;;2054134;28;20250;-71
2023/12/13 02:05:56;;;;;;;0.30;0.30;;;6.90;99.90;;;;;;2054837;28;20296;-72
2023/12/13 02:06:57;;;;;;;0.40;0.40;;;6.80;99.90;;;;;;2076009;28;20230;-71
2023/12/13 02:07:58;;;;;;;0.30;0.30;;;6.80;99.90;;;;;;2053483;28;20230;-72
2023/12/13 02:08:58;;;;;;;0.97;0.63;;;6.90;99.90;;;;;;2035595;28;20239;-72
2023/12/13 02:09:59;;;;;;;0.40;0.40;;;6.90;99.90;;;;;;2043988;28;20326;-72
2023/12/13 02:11:00;;;;;;;0.30;0.30;;;6.80;99.90;;;;;;2046104;28;20717;-72
2023/12/13 02:12:01;;;;;;;0.67;0.60;;;6.80;99.90;;;;;;2045995;28;20234;-72
2023/12/13 02:13:02;;;;;;;0.30;0.30;;;6.70;99.90;;;;;;2037299;28;20231;-72
2023/12/13 02:14:04;;;;;;;0.30;0.30;;;6.70;99.90;;;;;;2042756;28;20297;-72
2023/12/13 02:15:06;;;;;;;0.30;0.30;;;6.70;99.90;;;;;;2052937;28;20443;-72
2023/12/13 02:16:07;;;;;;;0.35;0.35;;;6.70;99.90;;;;;;2054718;28;20270;-72
2023/12/13 02:17:08;;;;;;;0.88;0.40;;;6.70;99.90;;;;;;2051992;28;20333;-72
2023/12/13 02:18:09;;;;;;;0.40;0.40;;;6.70;99.90;;;;;;2037195;29;20196;-72
2023/12/13 02:19:10;;;;;;;0.63;0.52;;;6.70;99.90;;;;;;2029850;29;20219;-72
2023/12/13 02:20:11;;;;;;;0.50;0.50;;;6.80;99.90;;;;;;2043643;28;20185;-72
2023/12/13 02:21:12;;;;;;;2.10;0.60;;;6.70;99.90;;;;;;2079135;28;20228;-72
2023/12/13 02:22:13;;;;;;;2.00;0.80;;;6.60;99.90;;;;;;2079338;28;20679;-72
2023/12/13 02:23:14;;;;;;;0.40;0.40;;;6.60;99.90;;;;;;2087716;28;20187;-72
2023/12/13 02:24:15;;;;;;;0.43;0.30;;;6.70;99.90;;;;;;2080538;28;20186;-72
2023/12/13 02:25:29;;;;;;;0.40;0.40;;;6.60;99.90;;;;;;2054249;28;20702;-72
2023/12/13 02:26:30;;;;;;;0.68;0.50;;;6.70;99.90;;;;;;2037900;29;20254;-72
2023/12/13 02:27:31;;;;;;;0.50;0.40;;;6.60;99.90;;;;;;2026250;28;20236;-72
2023/12/13 02:28:31;;;;;;;0.80;0.60;;;6.70;99.90;;;;;;2029482;29;20228;-72
2023/12/13 02:29:32;;;;;;;0.90;0.50;;;6.60;99.90;;;;;;2054032;28;20728;-71
2023/12/13 02:30:33;;;;;;;5.43;0.70;;;6.60;99.90;;;;;;2054541;28;20227;-72
2023/12/13 02:31:35;;;;;;;1.27;0.80;;;6.60;99.90;;;;;;2053138;28;20473;-71
2023/12/13 02:32:39;;;;;;;1.95;0.60;;;6.60;99.90;;;;;;2054415;28;20654;-71
2023/12/13 02:33:40;;;;;;;1.20;0.80;;;6.60;99.90;;;;;;2052871;28;20785;-72
2023/12/13 02:34:41;;;;;;;1.10;0.47;;;6.60;99.90;;;;;;2052454;28;20223;-71
2023/12/13 02:35:41;;;;;;;1.77;0.70;;;6.60;99.90;;;;;;2053904;28;20634;-71
2023/12/13 02:36:45;;;;;;;1.10;0.77;;;6.60;99.90;;;;;;2045528;28;20238;-72
2023/12/13 02:37:48;;;;;;;2.58;0.60;;;6.60;99.90;;;;;;2046415;28;20231;-72
2023/12/13 02:38:50;;;;;;;1.45;0.70;;;6.60;99.90;;;;;;2050156;28;20226;-71
2023/12/13 02:39:51;;;;;;;1.02;0.70;;;6.60;99.90;;;;;;2052879;28;20641;-71
2023/12/13 02:40:55;;;;;;;2.17;0.80;;;6.60;99.90;;;;;;2060941;28;20243;-71
2023/12/13 02:41:56;;;;;;;1.55;0.70;;;6.60;99.90;;;;;;2050687;28;20238;-72
2023/12/13 02:42:56;;;;;;;1.52;0.90;;;6.60;99.90;;;;;;2054582;28;20230;-72
2023/12/13 02:43:57;;;;;;;2.00;0.70;;;6.60;99.90;;;;;;2046816;28;20254;-72
2023/12/13 02:44:58;;;;;;;1.97;0.80;;;6.70;99.90;;;;;;2045982;28;20238;-71
2023/12/13 02:45:59;;;;;;;1.77;0.80;;;6.60;99.90;;;;;;2052650;28;20261;-71
2023/12/13 02:47:01;;;;;;;1.43;0.80;;;6.60;99.90;;;;;;2054766;28;20830;-71
2023/12/13 02:48:01;;;;;;;1.48;0.70;;;6.60;99.90;;;;;;2052480;28;20218;-72
2023/12/13 02:49:02;;;;;;;1.40;1.00;;;6.50;99.90;;;;;;2054289;28;20183;-72
2023/12/13 02:50:06;;;;;;;0.90;0.80;;;6.60;99.90;;;;;;2045933;28;20191;-72
2023/12/13 02:51:08;;;;;;;3.25;0.70;;;6.60;99.90;;;;;;2050670;28;20667;-72
2023/12/13 02:52:09;;;;;;;2.45;0.60;;;6.60;99.90;;;;;;2048111;28;20245;-72
2023/12/13 02:53:09;;;;;;;4.87;1.20;;;6.60;99.90;;;;;;2039720;29;20176;-72
2023/12/13 02:54:10;;;;;;;1.30;0.97;;;6.50;99.90;;;;;;2088130;28;20172;-72
2023/12/13 02:55:11;;;;;;;2.43;0.60;;;6.50;99.90;;;;;;2046371;28;20184;-72
2023/12/13 02:56:11;;;;;;;2.57;0.70;;;6.50;99.90;;;;;;2045718;28;20270;-71
2023/12/13 02:57:12;;;;;;;3.03;0.83;;;6.50;99.90;;;;;;2036195;29;20188;-72
2023/12/13 02:58:14;;;;;;;1.70;0.93;;;6.70;99.90;;;;;;2047537;28;20207;-72
2023/12/13 02:59:15;;;;;;;1.95;0.80;;;6.50;99.90;;;;;;2046153;28;20557;-71
2023/12/13 03:00:15;;;;;;;3.00;0.60;;;6.50;99.90;;;;;;2045592;28;20206;-72
2023/12/13 03:01:16;;;;;;;2.20;0.70;;;6.40;99.90;;;;;;2046248;28;20215;-72
2023/12/13 03:02:17;;;;;;;7.03;0.90;;;6.50;99.90;;;;;;2053236;28;20187;-72
2023/12/13 03:03:18;;;;;;;2.83;1.38;;;6.50;99.90;;;;;;2052641;28;20199;-72
2023/12/13 03:04:18;;;;;;;2.40;0.93;;;6.60;99.90;;;;;;2052010;28;20643;-72
2023/12/13 03:05:19;;;;;;;1.80;1.13;;;6.60;99.90;;;;;;2053365;28;20284;-72
2023/12/13 03:06:20;;;;;;;1.03;0.80;;;6.60;99.90;;;;;;2053291;28;20230;-72
2023/12/13 03:07:23;;;;;;;1.90;0.70;;;6.60;99.90;;;;;;2046135;28;20289;-72
2023/12/13 03:08:24;;;;;;;0.77;0.70;;;6.60;99.90;;;;;;2053186;28;20219;-72
2023/12/13 03:09:25;;;;;;;3.13;0.80;;;6.60;99.90;;;;;;2052891;28;20229;-72
2023/12/13 03:10:27;;;;;;;1.37;0.60;;;6.50;99.90;;;;;;2040211;28;20262;-72
2023/12/13 03:11:28;;;;;;;0.98;0.65;;;6.60;99.90;;;;;;2042345;28;20679;-72
2023/12/13 03:12:29;;;;;;;2.00;0.87;;;6.60;99.90;;;;;;2045595;28;20235;-72
2023/12/13 03:13:30;;;;;;;1.53;0.73;;;6.60;99.90;;;;;;2054049;28;20286;-72
2023/12/13 03:14:31;;;;;;;1.07;0.60;;;6.70;99.90;;;;;;2053465;28;20318;-72
2023/12/13 03:15:31;;;;;;;4.32;1.08;;;6.70;99.90;;;;;;2051725;28;20234;-72
2023/12/13 03:16:32;;;;;;;2.07;1.30;;;6.70;99.90;;;;;;2053388;28;20262;-72
2023/12/13 03:17:33;;;;;;;1.63;1.00;;;6.80;99.90;;;;;;2050807;28;20266;-71
2023/12/13 03:18:33;;;;;;;3.37;1.00;;;6.80;99.90;;;;;;2041330;28;20700;-72
2023/12/13 03:19:37;;;;;;;1.80;0.87;;;6.80;99.90;;;;;;2060469;28;20221;-72
2023/12/13 03:20:38;;;;;;;1.50;0.90;;;6.90;99.90;;;;;;2054450;28;20455;-72
2023/12/13 03:21:38;;;;;;;4.90;1.10;;;6.90;99.90;;;;;;2038771;28;20725;-72
2023/12/13 03:22:39;;;;;;;2.00;1.50;;;6.80;99.90;;;;;;2043589;29;20235;-71
2023/12/13 03:23:39;;;;;;;2.57;0.97;;;6.70;99.90;;;;;;2051098;28;20223;-71
2023/12/13 03:24:40;;;;;;;1.50;1.00;;;6.70;99.90;;;;;;2045784;28;20667;-71
2023/12/13 03:25:41;;;;;;;2.13;1.10;;;6.70;99.90;;;;;;2057348;28;20230;-72
2023/12/13 03:26:42;;;;;;;4.57;2.13;;;6.70;99.90;;;;;;2053475;28;20609;-71
2023/12/13 03:27:44;;;;;;;3.73;1.70;;;6.70;99.90;;;;;;2054934;28;20610;-71
2023/12/13 03:28:45;;;;;;;2.85;1.27;;;6.60;99.90;;;;;;2053725;28;20230;-72
2023/12/13 03:29:45;;;;;;;1.80;1.10;;;6.60;99.90;;;;;;2041955;28;20286;-72
2023/12/13 03:30:46;;;;;;;3.40;1.13;;;6.60;99.90;;;;;;2047589;28;20556;-72
2023/12/13 03:31:47;;;;;;;4.07;1.60;;;6.60;99.90;;;;;;2065541;28;20302;-72
2023/12/13 03:32:47;;;;;;;2.30;1.10;;;6.70;99.90;;;;;;2053789;28;20223;-72
2023/12/13 03:33:48;;;;;;;1.63;1.13;;;6.70;99.90;;;;;;2053563;28;20264;-71
2023/12/13 03:34:49;;;;;;;3.22;1.00;;;6.70;99.90;;;;;;2044887;28;20243;-72
2023/12/13 03:35:50;;;;;;;2.57;1.10;;;6.70;99.90;;;;;;2045826;28;20231;-72
2023/12/13 03:36:50;;;;;;;2.83;1.10;;;6.70;99.90;;;;;;2054220;28;20226;-72
2023/12/13 03:37:51;;;;;;;0.90;0.63;;;6.60;99.90;;;;;;2049953;28;20234;-72
2023/12/13 03:38:52;;;;;;;2.27;0.87;;;6.70;99.90;;;;;;2048528;28;20249;-72
2023/12/13 03:39:53;;;;;;;2.10;0.83;;;6.70;99.90;;;;;;2045502;28;20800;-72
2023/12/13 03:40:53;;;;;;;4.17;1.20;;;6.70;99.90;;;;;;2045198;28;20232;-72
2023/12/13 03:41:54;;;;;;;2.33;0.90;;;6.70;99.90;;;;;;2053678;28;20231;-71
2023/12/13 03:42:55;;;;;;;1.63;0.80;;;6.70;99.90;;;;;;2037649;29;20243;-72
2023/12/13 03:43:56;;;;;;;1.33;0.80;;;6.80;99.90;;;;;;2045698;28;20266;-72
2023/12/13 03:44:56;;;;;;;2.40;0.90;;;6.80;99.90;;;;;;2054276;28;20227;-71
2023/12/13 03:45:57;;;;;;;3.00;1.00;;;6.70;99.90;;;;;;2052254;28;20231;-72
2023/12/13 03:46:57;;;;;;;1.83;0.80;;;6.70;99.90;;;;;;2045367;28;20255;-72
2023/12/13 03:47:58;;;;;;;1.37;0.80;;;6.70;99.90;;;;;;2036905;29;20259;-72
2023/12/13 03:48:59;;;;;;;6.83;1.43;;;6.70;99.90;;;;;;2027587;29;20261;-72
2023/12/13 03:50:00;;;;;;;2.13;0.93;;;6.70;99.90;;;;;;2037249;29;20231;-72
2023/12/13 03:51:01;;;;;;;2.85;0.93;;;6.70;99.90;;;;;;2049694;28;20233;-72
2023/12/13 03:52:02;;;;;;;3.05;1.10;;;6.70;99.90;;;;;;2052757;28;20571;-72
2023/12/13 03:53:03;;;;;;;1.70;0.87;;;6.70;99.90;;;;;;2046033;28;20219;-72
2023/12/13 03:54:05;;;;;;;2.63;0.90;;;6.70;99.90;;;;;;2045441;28;20219;-72
2023/12/13 03:55:07;;;;;;;5.95;1.30;;;6.70;99.90;;;;;;2053238;28;20198;-72
2023/12/13 03:56:09;;;;;;;2.58;0.88;;;6.70;99.90;;;;;;2054071;28;20201;-72
2023/12/13 03:57:10;;;;;;;1.05;0.70;;;6.70;99.90;;;;;;2051909;28;20264;-72
2023/12/13 03:58:11;;;;;;;2.83;0.73;;;6.70;99.90;;;;;;2053692;28;20233;-72
2023/12/13 03:59:12;;;;;;;3.90;1.77;;;6.70;99.90;;;;;;2065637;28;20266;-72
2023/12/13 04:00:13;;;;;;;2.33;0.70;;;6.60;99.90;;;;;;2054168;28;20584;-72
2023/12/13 04:01:14;;;;;;;2.10;0.93;;;6.60;99.90;;;;;;2045558;28;20695;-72
2023/12/13 04:02:15;;;;;;;2.53;0.70;;;6.60;99.90;;;;;;2044402;28;20218;-72
2023/12/13 04:03:16;;;;;;;1.83;0.70;;;6.50;99.90;;;;;;2051879;28;20274;-72
2023/12/13 04:04:17;;;;;;;1.30;0.70;;;6.60;99.90;;;;;;2052555;28;20195;-72
2023/12/13 04:05:18;;;;;;;4.27;0.70;;;6.60;99.90;;;;;;2044680;28;20701;-72
2023/12/13 04:06:18;;;;;;;3.88;0.82;;;6.60;99.90;;;;;;2053564;28;20191;-71
2023/12/13 04:07:19;;;;;;;4.53;1.00;;;6.60;99.90;;;;;;2053119;28;20188;-71
2023/12/13 04:08:20;;;;;;;3.37;1.00;;;6.60;99.90;;;;;;2050774;28;20285;-71
2023/12/13 04:09:20;;;;;;;5.87;1.00;;;6.60;99.90;;;;;;2053687;28;20803;-71
2023/12/13 04:10:21;;;;;;;2.90;1.17;;;6.60;99.90;;;;;;2037154;28;20240;-71
2023/12/13 04:11:22;;;;;;;3.70;0.88;;;6.60;99.90;;;;;;2045532;28;20314;-70
2023/12/13 04:12:23;;;;;;;1.97;0.80;;;6.70;99.90;;;;;;2051547;28;20722;-71
2023/12/13 04:13:24;;;;;;;2.55;0.95;;;6.60;99.90;;;;;;2046301;28;20843;-71
2023/12/13 04:14:24;;;;;;;3.60;0.83;;;6.50;99.90;;;;;;2046378;28;20234;-72
2023/12/13 04:15:25;;;;;;;2.07;0.80;;;6.50;99.90;;;;;;2044536;28;20611;-71
2023/12/13 04:16:26;;;;;;;2.77;1.10;;;6.50;99.90;;;;;;2047081;28;20227;-71
2023/12/13 04:17:27;;;;;;;1.93;0.70;;;6.60;99.90;;;;;;2053763;28;20322;-71
2023/12/13 04:18:27;;;;;;;6.90;1.43;;;6.50;99.90;;;;;;2045262;28;20676;-71
2023/12/13 04:19:28;;;;;;;1.60;1.00;;;6.50;99.90;;;;;;2032425;29;20245;-71
2023/12/13 04:20:29;;;;;;;5.13;1.07;;;6.50;99.90;;;;;;2028027;28;20235;-71
2023/12/13 04:21:30;;;;;;;2.07;1.20;;;6.60;99.90;;;;;;2039042;29;20247;-71
2023/12/13 04:22:31;;;;;;;2.60;1.20;;;6.50;99.90;;;;;;2045623;28;20223;-70
2023/12/13 04:23:32;;;;;;;3.67;1.10;;;6.40;99.90;;;;;;2044389;28;20226;-70
2023/12/13 04:24:32;;;;;;;4.43;1.17;;;6.40;99.90;;;;;;2043255;28;20332;-70
2023/12/13 04:25:33;;;;;;;1.23;0.90;;;6.40;99.90;;;;;;2057196;28;20717;-71
2023/12/13 04:26:34;;;;;;;1.23;0.87;;;6.40;99.90;;;;;;2054237;28;20721;-70
2023/12/13 04:27:35;;;;;;;2.73;1.00;;;6.40;99.90;;;;;;2045217;28;20230;-73
2023/12/13 04:28:36;;;;;;;4.20;1.33;;;6.30;99.90;;;;;;2051234;28;20230;-71
2023/12/13 04:29:36;;;;;;;1.63;0.90;;;6.20;99.90;;;;;;2049334;28;20686;-71
2023/12/13 04:30:37;;;;;;;2.00;1.20;;;6.30;99.90;;;;;;2061262;28;20267;-72
2023/12/13 04:31:40;;;;;;;3.10;1.10;;;6.30;99.90;;;;;;2050404;28;20230;-72
2023/12/13 04:32:41;;;;;;;7.25;4.65;;;6.30;99.90;;;;;;2048378;28;20224;-71
2023/12/13 04:33:41;;;;;;;5.77;2.17;;;6.40;99.90;;;;;;2053189;28;20298;-71
2023/12/13 04:34:43;;;;;;;2.97;1.27;;;6.30;99.90;;;;;;2052743;28;20790;-71
2023/12/13 04:35:45;;;;;;;5.70;1.55;;;6.20;99.90;;;;;;2050169;28;20219;-71
2023/12/13 04:36:46;;;;;;;3.00;0.90;;;6.30;99.90;;;;;;2053687;28;20227;-71
2023/12/13 04:37:46;;;;;;;3.77;1.00;;;6.40;99.90;;;;;;2044623;28;20614;-71
2023/12/13 04:38:47;;;;;;;4.23;1.77;;;6.40;99.90;;;;;;2044590;28;20293;-71
2023/12/13 04:39:48;;;;;;;3.97;1.40;;;6.40;99.90;;;;;;2050617;28;20223;-71
2023/12/13 04:40:48;;;;;;;2.70;1.40;;;6.50;99.90;;;;;;2055437;28;20257;-71
2023/12/13 04:41:49;;;;;;;2.53;1.20;;;6.50;99.90;;;;;;2052821;28;20226;-71
2023/12/13 04:42:50;;;;;;;2.33;1.60;;;6.60;99.90;;;;;;2052786;28;20227;-71
2023/12/13 04:43:51;;;;;;;5.73;1.43;;;6.60;99.90;;;;;;2052780;28;20223;-71
2023/12/13 04:44:53;;;;;;;1.08;0.80;;;6.50;99.90;;;;;;2051146;28;20819;-71
2023/12/13 04:45:54;;;;;;;2.30;1.00;;;6.50;99.90;;;;;;2044465;28;20223;-71
2023/12/13 04:46:55;;;;;;;2.60;0.90;;;6.60;99.90;;;;;;2045718;28;20233;-70
2023/12/13 04:47:56;;;;;;;4.28;1.05;;;6.60;99.90;;;;;;2043931;28;20600;-70
2023/12/13 04:48:57;;;;;;;1.95;0.75;;;6.60;99.90;;;;;;2052370;28;20322;-71
2023/12/13 04:49:57;;;;;;;2.40;0.90;;;6.70;99.90;;;;;;2051177;28;20238;-70
2023/12/13 04:50:59;;;;;;;4.63;1.20;;;6.60;99.90;;;;;;2044873;28;20231;-71
2023/12/13 04:51:59;;;;;;;4.50;0.93;;;6.60;99.90;;;;;;2044755;28;20239;-71
2023/12/13 04:53:02;;;;;;;5.03;0.90;;;6.60;99.90;;;;;;2051951;28;20734;-71
2023/12/13 04:54:02;;;;;;;2.60;1.20;;;6.70;99.90;;;;;;2051765;28;20234;-71
2023/12/13 04:55:05;;;;;;;2.33;1.00;;;6.60;99.90;;;;;;2050284;28;20704;-72
2023/12/13 04:56:06;;;;;;;3.05;0.93;;;6.70;99.90;;;;;;2048794;28;20192;-71
2023/12/13 04:57:07;;;;;;;4.13;0.90;;;6.70;99.90;;;;;;2045031;28;20571;-72
2023/12/13 04:58:08;;;;;;;1.65;0.85;;;6.60;99.90;;;;;;2044943;28;20591;-71
2023/12/13 04:59:09;;;;;;;3.38;1.25;;;6.70;99.90;;;;;;2052533;28;20183;-71
2023/12/13 05:00:11;;;;;;;2.70;1.40;;;6.70;99.90;;;;;;2050389;28;20660;-71
2023/12/13 05:01:12;;;;;;;4.97;1.60;;;6.70;99.90;;;;;;2056325;28;20209;-71
2023/12/13 05:02:13;;;;;;;5.93;4.85;;;6.60;99.90;;;;;;2053108;28;20229;-71
2023/12/13 05:03:13;;;;;;;6.97;5.37;;;6.70;99.90;;;;;;2038805;28;20226;-71
2023/12/13 05:04:14;;;;;;;4.03;3.10;;;6.70;99.90;;;;;;2044886;28;20200;-71
2023/12/13 05:05:15;;;;;;;5.77;1.03;;;6.70;99.90;;;;;;2051360;28;20211;-71
2023/12/13 05:06:16;;;;;;;4.75;1.35;;;6.70;99.90;;;;;;2053228;28;20183;-71
2023/12/13 05:07:17;;;;;;;3.47;1.37;;;6.70;99.90;;;;;;2057878;28;20573;-71
2023/12/13 05:08:18;;;;;;;2.50;1.23;;;6.70;99.90;;;;;;2052793;28;20788;-71
2023/12/13 05:09:18;;;;;;;3.23;1.07;;;6.70;99.90;;;;;;2044926;28;20268;-71
2023/12/13 05:10:19;;;;;;;3.13;0.90;;;6.70;99.90;;;;;;2053316;28;20731;-71
2023/12/13 05:11:20;;;;;;;2.47;1.17;;;6.60;99.90;;;;;;2054053;28;20257;-71
2023/12/13 05:12:21;;;;;;;3.83;1.87;;;6.60;99.90;;;;;;2053617;28;20294;-71
2023/12/13 05:13:22;;;;;;;2.23;1.20;;;6.60;99.90;;;;;;2053305;28;20239;-71
2023/12/13 05:14:23;;;;;;;2.83;1.20;;;6.60;99.90;;;;;;2044865;28;20665;-72
2023/12/13 05:15:23;;;;;;;7.30;1.60;;;6.60;99.90;;;;;;2037028;29;20228;-72
2023/12/13 05:16:24;;;;;;;2.63;1.10;;;6.60;99.90;;;;;;2034892;28;20637;-71
2023/12/13 05:17:25;;;;;;;2.77;1.07;;;6.60;99.90;;;;;;2033186;28;20316;-71
2023/12/13 05:18:25;;;;;;;4.40;1.80;;;6.60;99.90;;;;;;2054161;28;20221;-71
2023/12/13 05:19:26;;;;;;;2.67;1.10;;;6.70;99.90;;;;;;2063958;28;20277;-71
2023/12/13 05:20:27;;;;;;;1.73;1.00;;;6.70;99.90;;;;;;2052780;28;20231;-72
2023/12/13 05:21:28;;;;;;;4.27;1.00;;;6.70;99.90;;;;;;2052904;28;20231;-72
2023/12/13 05:22:28;;;;;;;2.05;1.10;;;6.80;99.90;;;;;;2045543;28;20326;-72